sensor_id;sensor_type;location;lat;lon;timestamp;P1;durP1;ratioP1;P2;durP2;ratioP2
7247;SDS011;3665;51.034;13.642;2023-02-28T00:02:08;7.17;;;5.50;;
7247;SDS011;3665;51.034;13.642;2023-02-28T00:06:57;10.63;;;5.47;;
7247;SDS011;3665;51.034;13.642;2023-02-28T00:11:46;6.30;;;5.10;;
7247;SDS011;3665;51.034;13.642;2023-02-28T00:16:33;6.13;;;5.17;;
7247;SDS011;3665;51.034;13.642;2023-02-28T00:21:20;4.90;;;4.20;;
7247;SDS011;3665;51.034;13.642;2023-02-28T00:26:08;6.60;;;4.80;;
7247;SDS011;3665;51.034;13.642;2023-02-28T00:30:56;7.63;;;4.50;;
7247;SDS011;3665;51.034;13.642;2023-02-28T00:35:44;6.33;;;4.50;;
7247;SDS011;3665;51.034;13.642;2023-02-28T00:40:33;6.93;;;4.73;;
7247;SDS011;3665;51.034;13.642;2023-02-28T00:45:21;6.67;;;4.80;;
7247;SDS011;3665;51.034;13.642;2023-02-28T00:50:05;7.07;;;5.23;;
7247;SDS011;3665;51.034;13.642;2023-02-28T00:54:57;6.33;;;4.53;;
7247;SDS011;3665;51.034;13.642;2023-02-28T00:59:46;6.10;;;4.60;;
7247;SDS011;3665;51.034;13.642;2023-02-28T01:04:29;8.03;;;4.83;;
7247;SDS011;3665;51.034;13.642;2023-02-28T01:09:22;5.83;;;4.70;;
7247;SDS011;3665;51.034;13.642;2023-02-28T01:14:10;7.80;;;5.03;;
7247;SDS011;3665;51.034;13.642;2023-02-28T01:18:58;7.43;;;5.00;;
7247;SDS011;3665;51.034;13.642;2023-02-28T01:23:46;8.07;;;5.13;;
7247;SDS011;3665;51.034;13.642;2023-02-28T01:28:34;7.30;;;4.67;;
7247;SDS011;3665;51.034;13.642;2023-02-28T01:33:22;6.83;;;5.20;;
7247;SDS011;3665;51.034;13.642;2023-02-28T01:38:10;7.40;;;4.87;;
7247;SDS011;3665;51.034;13.642;2023-02-28T01:43:16;6.97;;;5.43;;
7247;SDS011;3665;51.034;13.642;2023-02-28T01:48:17;5.87;;;5.13;;
7247;SDS011;3665;51.034;13.642;2023-02-28T01:53:08;6.03;;;5.00;;
7247;SDS011;3665;51.034;13.642;2023-02-28T01:57:56;8.20;;;5.83;;
7247;SDS011;3665;51.034;13.642;2023-02-28T02:02:41;7.07;;;5.13;;
7247;SDS011;3665;51.034;13.642;2023-02-28T02:07:29;7.47;;;5.10;;
7247;SDS011;3665;51.034;13.642;2023-02-28T02:12:25;6.73;;;5.70;;
7247;SDS011;3665;51.034;13.642;2023-02-28T02:17:22;6.27;;;4.77;;
7247;SDS011;3665;51.034;13.642;2023-02-28T02:22:27;7.13;;;4.87;;
7247;SDS011;3665;51.034;13.642;2023-02-28T02:33:06;6.47;;;5.03;;
7247;SDS011;3665;51.034;13.642;2023-02-28T02:38:13;7.83;;;5.40;;
7247;SDS011;3665;51.034;13.642;2023-02-28T02:43:15;8.87;;;4.90;;
7247;SDS011;3665;51.034;13.642;2023-02-28T02:48:03;7.37;;;5.13;;
7247;SDS011;3665;51.034;13.642;2023-02-28T02:52:50;8.37;;;6.10;;
7247;SDS011;3665;51.034;13.642;2023-02-28T02:57:40;8.57;;;5.47;;
7247;SDS011;3665;51.034;13.642;2023-02-28T03:02:46;6.70;;;5.67;;
7247;SDS011;3665;51.034;13.642;2023-02-28T03:07:31;7.47;;;5.63;;
7247;SDS011;3665;51.034;13.642;2023-02-28T03:12:18;7.80;;;5.27;;
7247;SDS011;3665;51.034;13.642;2023-02-28T03:22:33;7.30;;;5.40;;
7247;SDS011;3665;51.034;13.642;2023-02-28T03:27:33;8.07;;;5.80;;
7247;SDS011;3665;51.034;13.642;2023-02-28T03:32:35;8.80;;;6.40;;
7247;SDS011;3665;51.034;13.642;2023-02-28T03:37:23;8.40;;;5.90;;
7247;SDS011;3665;51.034;13.642;2023-02-28T03:42:11;8.43;;;5.57;;
7247;SDS011;3665;51.034;13.642;2023-02-28T03:47:02;8.43;;;6.30;;
7247;SDS011;3665;51.034;13.642;2023-02-28T03:52:02;8.57;;;6.13;;
7247;SDS011;3665;51.034;13.642;2023-02-28T03:56:51;7.23;;;6.53;;
7247;SDS011;3665;51.034;13.642;2023-02-28T04:01:40;8.13;;;6.60;;
7247;SDS011;3665;51.034;13.642;2023-02-28T04:06:26;7.47;;;6.13;;
7247;SDS011;3665;51.034;13.642;2023-02-28T04:11:16;8.17;;;6.17;;
7247;SDS011;3665;51.034;13.642;2023-02-28T04:16:17;8.73;;;6.53;;
7247;SDS011;3665;51.034;13.642;2023-02-28T04:21:15;10.07;;;7.17;;
7247;SDS011;3665;51.034;13.642;2023-02-28T04:26:10;10.90;;;7.27;;
7247;SDS011;3665;51.034;13.642;2023-02-28T04:30:59;10.00;;;7.37;;
7247;SDS011;3665;51.034;13.642;2023-02-28T04:35:46;10.20;;;7.03;;
7247;SDS011;3665;51.034;13.642;2023-02-28T04:40:34;8.27;;;6.83;;
7247;SDS011;3665;51.034;13.642;2023-02-28T04:45:21;10.33;;;6.73;;
7247;SDS011;3665;51.034;13.642;2023-02-28T04:50:15;9.97;;;6.90;;
7247;SDS011;3665;51.034;13.642;2023-02-28T04:54:59;14.30;;;9.17;;
7247;SDS011;3665;51.034;13.642;2023-02-28T04:59:45;12.00;;;8.50;;
7247;SDS011;3665;51.034;13.642;2023-02-28T05:04:38;11.97;;;8.10;;
7247;SDS011;3665;51.034;13.642;2023-02-28T05:09:23;11.03;;;7.73;;
7247;SDS011;3665;51.034;13.642;2023-02-28T05:14:11;13.17;;;8.43;;
7247;SDS011;3665;51.034;13.642;2023-02-28T05:18:59;12.07;;;7.97;;
7247;SDS011;3665;51.034;13.642;2023-02-28T05:23:46;11.17;;;8.23;;
7247;SDS011;3665;51.034;13.642;2023-02-28T05:28:34;11.07;;;8.10;;
7247;SDS011;3665;51.034;13.642;2023-02-28T05:33:22;10.00;;;7.63;;
7247;SDS011;3665;51.034;13.642;2023-02-28T05:38:14;12.63;;;8.93;;
7247;SDS011;3665;51.034;13.642;2023-02-28T05:42:59;12.70;;;9.93;;
7247;SDS011;3665;51.034;13.642;2023-02-28T05:47:47;11.00;;;8.67;;
7247;SDS011;3665;51.034;13.642;2023-02-28T05:52:34;13.43;;;10.03;;
7247;SDS011;3665;51.034;13.642;2023-02-28T05:57:26;16.27;;;11.27;;
7247;SDS011;3665;51.034;13.642;2023-02-28T06:02:10;12.67;;;10.57;;
7247;SDS011;3665;51.034;13.642;2023-02-28T06:06:58;13.73;;;9.77;;
7247;SDS011;3665;51.034;13.642;2023-02-28T06:11:45;15.47;;;9.87;;
7247;SDS011;3665;51.034;13.642;2023-02-28T06:16:38;13.40;;;11.10;;
7247;SDS011;3665;51.034;13.642;2023-02-28T06:21:22;16.33;;;10.87;;
7247;SDS011;3665;51.034;13.642;2023-02-28T06:26:10;16.97;;;10.43;;
7247;SDS011;3665;51.034;13.642;2023-02-28T06:30:57;16.53;;;9.87;;
7247;SDS011;3665;51.034;13.642;2023-02-28T06:35:50;16.00;;;11.20;;
7247;SDS011;3665;51.034;13.642;2023-02-28T06:40:34;17.27;;;11.53;;
7247;SDS011;3665;51.034;13.642;2023-02-28T06:45:23;13.90;;;10.23;;
7247;SDS011;3665;51.034;13.642;2023-02-28T06:50:09;12.97;;;9.43;;
7247;SDS011;3665;51.034;13.642;2023-02-28T06:54:58;15.30;;;10.53;;
7247;SDS011;3665;51.034;13.642;2023-02-28T06:59:47;17.07;;;11.37;;
7247;SDS011;3665;51.034;13.642;2023-02-28T07:04:36;16.57;;;10.63;;
7247;SDS011;3665;51.034;13.642;2023-02-28T07:09:22;18.20;;;11.03;;
7247;SDS011;3665;51.034;13.642;2023-02-28T07:14:09;14.23;;;10.40;;
7247;SDS011;3665;51.034;13.642;2023-02-28T07:19:01;16.60;;;11.20;;
7247;SDS011;3665;51.034;13.642;2023-02-28T07:23:46;14.27;;;11.17;;
7247;SDS011;3665;51.034;13.642;2023-02-28T07:28:34;18.57;;;11.13;;
7247;SDS011;3665;51.034;13.642;2023-02-28T07:33:21;17.67;;;11.57;;
7247;SDS011;3665;51.034;13.642;2023-02-28T07:38:11;16.77;;;11.80;;
7247;SDS011;3665;51.034;13.642;2023-02-28T07:43:00;15.80;;;11.40;;
7247;SDS011;3665;51.034;13.642;2023-02-28T07:47:47;15.60;;;12.37;;
7247;SDS011;3665;51.034;13.642;2023-02-28T07:52:34;13.23;;;9.63;;
7247;SDS011;3665;51.034;13.642;2023-02-28T07:57:22;15.03;;;10.00;;
7247;SDS011;3665;51.034;13.642;2023-02-28T08:02:10;12.80;;;9.77;;
7247;SDS011;3665;51.034;13.642;2023-02-28T08:06:59;14.17;;;8.73;;
7247;SDS011;3665;51.034;13.642;2023-02-28T08:11:48;12.83;;;8.40;;
7247;SDS011;3665;51.034;13.642;2023-02-28T08:22:12;10.83;;;7.10;;
7247;SDS011;3665;51.034;13.642;2023-02-28T08:26:57;9.13;;;7.13;;
7247;SDS011;3665;51.034;13.642;2023-02-28T08:31:47;9.57;;;7.33;;
7247;SDS011;3665;51.034;13.642;2023-02-28T08:36:34;10.87;;;7.70;;
7247;SDS011;3665;51.034;13.642;2023-02-28T08:41:22;9.43;;;7.27;;
7247;SDS011;3665;51.034;13.642;2023-02-28T08:46:10;12.53;;;8.13;;
7247;SDS011;3665;51.034;13.642;2023-02-28T08:50:59;8.00;;;6.87;;
7247;SDS011;3665;51.034;13.642;2023-02-28T08:56:02;8.53;;;7.33;;
7247;SDS011;3665;51.034;13.642;2023-02-28T09:00:51;8.97;;;6.77;;
7247;SDS011;3665;51.034;13.642;2023-02-28T09:05:37;11.80;;;7.73;;
7247;SDS011;3665;51.034;13.642;2023-02-28T09:10:26;10.33;;;7.13;;
7247;SDS011;3665;51.034;13.642;2023-02-28T09:15:18;7.30;;;6.20;;
7247;SDS011;3665;51.034;13.642;2023-02-28T09:20:03;13.33;;;7.00;;
7247;SDS011;3665;51.034;13.642;2023-02-28T09:24:50;8.67;;;6.37;;
7247;SDS011;3665;51.034;13.642;2023-02-28T09:29:38;9.00;;;6.77;;
7247;SDS011;3665;51.034;13.642;2023-02-28T09:34:21;7.53;;;5.93;;
7247;SDS011;3665;51.034;13.642;2023-02-28T09:39:17;7.30;;;5.73;;
7247;SDS011;3665;51.034;13.642;2023-02-28T09:44:03;9.23;;;6.50;;
7247;SDS011;3665;51.034;13.642;2023-02-28T09:48:49;7.90;;;6.20;;
7247;SDS011;3665;51.034;13.642;2023-02-28T09:53:55;7.63;;;5.67;;
7247;SDS011;3665;51.034;13.642;2023-02-28T09:58:46;7.37;;;5.87;;
7247;SDS011;3665;51.034;13.642;2023-02-28T10:03:50;6.87;;;5.50;;
7247;SDS011;3665;51.034;13.642;2023-02-28T10:09:06;14.00;;;9.80;;
7247;SDS011;3665;51.034;13.642;2023-02-28T10:13:58;18.50;;;11.13;;
7247;SDS011;3665;51.034;13.642;2023-02-28T10:18:59;7.37;;;6.10;;
7247;SDS011;3665;51.034;13.642;2023-02-28T10:23:47;8.47;;;6.13;;
7247;SDS011;3665;51.034;13.642;2023-02-28T10:28:34;7.33;;;5.67;;
7247;SDS011;3665;51.034;13.642;2023-02-28T10:33:24;9.97;;;7.47;;
7247;SDS011;3665;51.034;13.642;2023-02-28T10:38:12;7.63;;;5.83;;
7247;SDS011;3665;51.034;13.642;2023-02-28T10:43:17;8.03;;;6.10;;
7247;SDS011;3665;51.034;13.642;2023-02-28T10:48:03;8.20;;;6.40;;
7247;SDS011;3665;51.034;13.642;2023-02-28T10:52:50;13.93;;;9.10;;
7247;SDS011;3665;51.034;13.642;2023-02-28T10:57:37;11.37;;;7.13;;
7247;SDS011;3665;51.034;13.642;2023-02-28T11:02:29;15.17;;;8.37;;
7247;SDS011;3665;51.034;13.642;2023-02-28T11:07:16;10.40;;;7.57;;
7247;SDS011;3665;51.034;13.642;2023-02-28T11:17:30;9.03;;;7.13;;
7247;SDS011;3665;51.034;13.642;2023-02-28T11:22:43;13.37;;;8.47;;
7247;SDS011;3665;51.034;13.642;2023-02-28T11:27:47;10.93;;;7.30;;
7247;SDS011;3665;51.034;13.642;2023-02-28T11:32:33;9.37;;;7.10;;
7247;SDS011;3665;51.034;13.642;2023-02-28T11:37:22;8.53;;;7.60;;
7247;SDS011;3665;51.034;13.642;2023-02-28T11:42:13;8.63;;;7.00;;
7247;SDS011;3665;51.034;13.642;2023-02-28T11:47:36;9.67;;;7.17;;
7247;SDS011;3665;51.034;13.642;2023-02-28T11:52:36;8.77;;;7.57;;
7247;SDS011;3665;51.034;13.642;2023-02-28T12:03:21;8.07;;;6.97;;
7247;SDS011;3665;51.034;13.642;2023-02-28T12:08:36;9.23;;;7.13;;
7247;SDS011;3665;51.034;13.642;2023-02-28T12:13:42;12.13;;;7.60;;
7247;SDS011;3665;51.034;13.642;2023-02-28T12:18:45;7.67;;;6.87;;
7247;SDS011;3665;51.034;13.642;2023-02-28T12:24:01;7.93;;;7.03;;
7247;SDS011;3665;51.034;13.642;2023-02-28T12:29:09;8.10;;;5.97;;
7247;SDS011;3665;51.034;13.642;2023-02-28T12:34:12;7.33;;;6.20;;
7247;SDS011;3665;51.034;13.642;2023-02-28T12:39:07;8.97;;;6.80;;
7247;SDS011;3665;51.034;13.642;2023-02-28T12:44:02;11.23;;;7.60;;
7247;SDS011;3665;51.034;13.642;2023-02-28T12:48:52;8.17;;;6.93;;
7247;SDS011;3665;51.034;13.642;2023-02-28T12:53:46;7.97;;;6.67;;
7247;SDS011;3665;51.034;13.642;2023-02-28T12:58:39;9.33;;;7.37;;
7247;SDS011;3665;51.034;13.642;2023-02-28T13:03:35;10.47;;;7.90;;
7247;SDS011;3665;51.034;13.642;2023-02-28T13:13:57;11.37;;;8.20;;
7247;SDS011;3665;51.034;13.642;2023-02-28T13:18:43;9.73;;;8.03;;
7247;SDS011;3665;51.034;13.642;2023-02-28T13:34:14;9.97;;;8.10;;
7247;SDS011;3665;51.034;13.642;2023-02-28T13:38:59;10.83;;;8.83;;
7247;SDS011;3665;51.034;13.642;2023-02-28T13:44:02;10.70;;;7.70;;
7247;SDS011;3665;51.034;13.642;2023-02-28T13:48:52;11.17;;;8.20;;
7247;SDS011;3665;51.034;13.642;2023-02-28T13:58:43;12.10;;;8.93;;
7247;SDS011;3665;51.034;13.642;2023-02-28T14:03:46;9.40;;;8.27;;
7247;SDS011;3665;51.034;13.642;2023-02-28T14:14:53;12.27;;;8.73;;
7247;SDS011;3665;51.034;13.642;2023-02-28T14:19:46;16.73;;;11.03;;
7247;SDS011;3665;51.034;13.642;2023-02-28T14:24:42;14.20;;;10.17;;
7247;SDS011;3665;51.034;13.642;2023-02-28T14:35:20;10.87;;;8.47;;
7247;SDS011;3665;51.034;13.642;2023-02-28T14:40:34;11.90;;;8.77;;
7247;SDS011;3665;51.034;13.642;2023-02-28T14:45:24;11.90;;;8.97;;
7247;SDS011;3665;51.034;13.642;2023-02-28T14:50:18;11.87;;;8.97;;
7247;SDS011;3665;51.034;13.642;2023-02-28T14:55:15;11.50;;;10.03;;
7247;SDS011;3665;51.034;13.642;2023-02-28T15:00:04;12.37;;;9.60;;
7247;SDS011;3665;51.034;13.642;2023-02-28T15:05:25;10.83;;;9.27;;
7247;SDS011;3665;51.034;13.642;2023-02-28T15:10:15;11.10;;;8.57;;
7247;SDS011;3665;51.034;13.642;2023-02-28T15:15:14;13.43;;;9.77;;
7247;SDS011;3665;51.034;13.642;2023-02-28T15:20:02;15.03;;;10.37;;
7247;SDS011;3665;51.034;13.642;2023-02-28T15:24:51;15.10;;;10.93;;
7247;SDS011;3665;51.034;13.642;2023-02-28T15:29:41;10.70;;;8.33;;
7247;SDS011;3665;51.034;13.642;2023-02-28T15:40:10;13.47;;;9.77;;
7247;SDS011;3665;51.034;13.642;2023-02-28T15:45:25;14.20;;;9.50;;
7247;SDS011;3665;51.034;13.642;2023-02-28T15:50:10;14.53;;;10.93;;
7247;SDS011;3665;51.034;13.642;2023-02-28T15:54:57;13.47;;;10.23;;
7247;SDS011;3665;51.034;13.642;2023-02-28T15:59:48;12.93;;;10.07;;
7247;SDS011;3665;51.034;13.642;2023-02-28T16:04:35;15.10;;;10.00;;
7247;SDS011;3665;51.034;13.642;2023-02-28T16:09:23;15.47;;;10.33;;
7247;SDS011;3665;51.034;13.642;2023-02-28T16:14:13;14.33;;;10.47;;
7247;SDS011;3665;51.034;13.642;2023-02-28T16:19:00;13.10;;;10.17;;
7247;SDS011;3665;51.034;13.642;2023-02-28T16:23:45;15.47;;;10.67;;
7247;SDS011;3665;51.034;13.642;2023-02-28T16:28:38;13.97;;;9.67;;
7247;SDS011;3665;51.034;13.642;2023-02-28T16:33:22;13.97;;;10.67;;
7247;SDS011;3665;51.034;13.642;2023-02-28T16:38:10;15.77;;;11.93;;
7247;SDS011;3665;51.034;13.642;2023-02-28T16:42:57;15.47;;;10.97;;
7247;SDS011;3665;51.034;13.642;2023-02-28T16:47:48;17.20;;;11.07;;
7247;SDS011;3665;51.034;13.642;2023-02-28T16:52:34;16.57;;;11.10;;
7247;SDS011;3665;51.034;13.642;2023-02-28T16:57:22;15.60;;;10.60;;
7247;SDS011;3665;51.034;13.642;2023-02-28T17:02:09;13.77;;;11.57;;
7247;SDS011;3665;51.034;13.642;2023-02-28T17:06:59;18.03;;;12.47;;
7247;SDS011;3665;51.034;13.642;2023-02-28T17:11:45;17.10;;;11.37;;
7247;SDS011;3665;51.034;13.642;2023-02-28T17:16:33;17.10;;;12.10;;
7247;SDS011;3665;51.034;13.642;2023-02-28T17:21:21;16.27;;;11.67;;
7247;SDS011;3665;51.034;13.642;2023-02-28T17:26:08;16.83;;;11.77;;
7247;SDS011;3665;51.034;13.642;2023-02-28T17:30:58;16.97;;;11.57;;
7247;SDS011;3665;51.034;13.642;2023-02-28T17:35:45;19.00;;;12.53;;
7247;SDS011;3665;51.034;13.642;2023-02-28T17:40:38;17.10;;;12.87;;
7247;SDS011;3665;51.034;13.642;2023-02-28T17:45:22;22.33;;;14.43;;
7247;SDS011;3665;51.034;13.642;2023-02-28T17:50:11;24.33;;;15.50;;
7247;SDS011;3665;51.034;13.642;2023-02-28T17:55:00;20.67;;;14.63;;
7247;SDS011;3665;51.034;13.642;2023-02-28T17:59:45;21.20;;;14.20;;
7247;SDS011;3665;51.034;13.642;2023-02-28T18:04:38;22.13;;;13.53;;
7247;SDS011;3665;51.034;13.642;2023-02-28T18:09:22;18.57;;;13.13;;
7247;SDS011;3665;51.034;13.642;2023-02-28T18:14:10;21.27;;;14.23;;
7247;SDS011;3665;51.034;13.642;2023-02-28T18:19:00;18.23;;;12.60;;
7247;SDS011;3665;51.034;13.642;2023-02-28T18:23:46;16.57;;;12.33;;
7247;SDS011;3665;51.034;13.642;2023-02-28T18:28:36;17.30;;;12.00;;
7247;SDS011;3665;51.034;13.642;2023-02-28T18:33:24;19.10;;;13.77;;
7247;SDS011;3665;51.034;13.642;2023-02-28T18:38:10;20.10;;;14.73;;
7247;SDS011;3665;51.034;13.642;2023-02-28T18:42:58;18.87;;;14.47;;
7247;SDS011;3665;51.034;13.642;2023-02-28T18:47:48;20.23;;;13.87;;
7247;SDS011;3665;51.034;13.642;2023-02-28T18:52:33;19.07;;;13.37;;
7247;SDS011;3665;51.034;13.642;2023-02-28T18:57:27;20.30;;;15.43;;
7247;SDS011;3665;51.034;13.642;2023-02-28T19:02:10;19.93;;;14.80;;
7247;SDS011;3665;51.034;13.642;2023-02-28T19:07:00;22.93;;;15.33;;
7247;SDS011;3665;51.034;13.642;2023-02-28T19:11:48;22.67;;;15.30;;
7247;SDS011;3665;51.034;13.642;2023-02-28T19:16:33;26.20;;;17.53;;
7247;SDS011;3665;51.034;13.642;2023-02-28T19:21:21;26.73;;;18.03;;
7247;SDS011;3665;51.034;13.642;2023-02-28T19:26:10;28.83;;;17.50;;
7247;SDS011;3665;51.034;13.642;2023-02-28T19:30:59;26.23;;;17.87;;
7247;SDS011;3665;51.034;13.642;2023-02-28T19:35:46;23.70;;;16.97;;
7247;SDS011;3665;51.034;13.642;2023-02-28T19:40:33;23.67;;;17.07;;
7247;SDS011;3665;51.034;13.642;2023-02-28T19:45:18;26.27;;;17.27;;
7247;SDS011;3665;51.034;13.642;2023-02-28T19:50:11;27.57;;;19.37;;
7247;SDS011;3665;51.034;13.642;2023-02-28T19:55:13;23.67;;;16.17;;
7247;SDS011;3665;51.034;13.642;2023-02-28T20:00:01;26.13;;;17.83;;
7247;SDS011;3665;51.034;13.642;2023-02-28T20:04:57;23.37;;;16.73;;
7247;SDS011;3665;51.034;13.642;2023-02-28T20:09:58;28.20;;;19.23;;
7247;SDS011;3665;51.034;13.642;2023-02-28T20:14:42;29.50;;;18.77;;
7247;SDS011;3665;51.034;13.642;2023-02-28T20:19:32;27.03;;;18.90;;
7247;SDS011;3665;51.034;13.642;2023-02-28T20:24:17;27.00;;;18.30;;
7247;SDS011;3665;51.034;13.642;2023-02-28T20:29:08;28.53;;;18.93;;
7247;SDS011;3665;51.034;13.642;2023-02-28T20:33:54;27.10;;;18.63;;
7247;SDS011;3665;51.034;13.642;2023-02-28T20:38:44;25.13;;;16.40;;
7247;SDS011;3665;51.034;13.642;2023-02-28T20:48:51;26.60;;;17.63;;
7247;SDS011;3665;51.034;13.642;2023-02-28T20:53:38;26.43;;;18.07;;
7247;SDS011;3665;51.034;13.642;2023-02-28T20:58:25;25.47;;;16.07;;
7247;SDS011;3665;51.034;13.642;2023-02-28T21:03:13;26.40;;;17.00;;
7247;SDS011;3665;51.034;13.642;2023-02-28T21:08:04;25.50;;;17.73;;
7247;SDS011;3665;51.034;13.642;2023-02-28T21:12:51;27.17;;;16.93;;
7247;SDS011;3665;51.034;13.642;2023-02-28T21:17:45;27.60;;;17.27;;
7247;SDS011;3665;51.034;13.642;2023-02-28T21:22:46;27.20;;;17.20;;
7247;SDS011;3665;51.034;13.642;2023-02-28T21:27:32;29.43;;;18.67;;
7247;SDS011;3665;51.034;13.642;2023-02-28T21:32:19;26.80;;;17.50;;
7247;SDS011;3665;51.034;13.642;2023-02-28T21:37:08;27.07;;;18.17;;
7247;SDS011;3665;51.034;13.642;2023-02-28T21:41:53;27.50;;;18.40;;
7247;SDS011;3665;51.034;13.642;2023-02-28T21:46:42;29.80;;;19.00;;
7247;SDS011;3665;51.034;13.642;2023-02-28T21:51:29;30.13;;;18.87;;
7247;SDS011;3665;51.034;13.642;2023-02-28T21:56:19;29.43;;;19.63;;
7247;SDS011;3665;51.034;13.642;2023-02-28T22:01:07;28.03;;;19.83;;
7247;SDS011;3665;51.034;13.642;2023-02-28T22:05:55;30.37;;;18.17;;
7247;SDS011;3665;51.034;13.642;2023-02-28T22:11:02;28.53;;;19.27;;
7247;SDS011;3665;51.034;13.642;2023-02-28T22:16:07;31.63;;;19.43;;
7247;SDS011;3665;51.034;13.642;2023-02-28T22:26:19;34.50;;;21.00;;
7247;SDS011;3665;51.034;13.642;2023-02-28T22:31:14;35.47;;;21.93;;
7247;SDS011;3665;51.034;13.642;2023-02-28T22:36:23;31.90;;;21.23;;
7247;SDS011;3665;51.034;13.642;2023-02-28T22:41:39;33.40;;;21.33;;
7247;SDS011;3665;51.034;13.642;2023-02-28T22:46:45;32.53;;;21.97;;
7247;SDS011;3665;51.034;13.642;2023-02-28T22:57:56;36.20;;;20.83;;
7247;SDS011;3665;51.034;13.642;2023-02-28T23:03:31;33.07;;;20.77;;
7247;SDS011;3665;51.034;13.642;2023-02-28T23:08:49;32.20;;;21.80;;
7247;SDS011;3665;51.034;13.642;2023-02-28T23:13:56;27.57;;;18.70;;
7247;SDS011;3665;51.034;13.642;2023-02-28T23:18:59;29.90;;;19.57;;
7247;SDS011;3665;51.034;13.642;2023-02-28T23:24:18;27.63;;;18.20;;
7247;SDS011;3665;51.034;13.642;2023-02-28T23:34:42;25.73;;;17.93;;
7247;SDS011;3665;51.034;13.642;2023-02-28T23:39:51;29.00;;;17.20;;
7247;SDS011;3665;51.034;13.642;2023-02-28T23:45:30;27.17;;;16.80;;
7247;SDS011;3665;51.034;13.642;2023-02-28T23:50:48;28.60;;;17.20;;
7247;SDS011;3665;51.034;13.642;2023-02-28T23:56:24;27.37;;;16.63;;
